Time;durP1;ratioP1;P1;durP2;ratioP2;P2;SDS_P1;SDS_P2;PMS_P1;PMS_P2;Temp;Humidity;BMP_temperature;BMP_pressure;BME280_temperature;BME280_humidity;BME280_pressure;Samples;Min_cycle;Max_cycle;Signal;HPM_P1;HPM_P2
2023/06/07 00:04:11;;;;;;;20.45;19.15;;;;;;;16.36;100.00;100195.28;10377288;28;20049;-70
2023/06/07 00:09:13;;;;;;;14.35;13.55;;;;;;;16.33;100.00;100196.31;10378846;28;20060;-70
2023/06/07 00:14:15;;;;;;;21.55;20.15;;;;;;;16.32;100.00;100189.28;10378197;28;20381;-69
2023/06/07 00:19:21;;;;;;;24.05;22.50;;;;;;;16.22;100.00;100188.06;10377526;28;20034;-69
2023/06/07 00:24:23;;;;;;;22.27;21.08;;;;;;;16.19;100.00;100182.91;10376976;28;20050;-69
2023/06/07 00:29:25;;;;;;;25.58;24.17;;;;;;;16.14;100.00;100187.63;10375531;28;20140;-68
2023/06/07 00:34:27;;;;;;;22.55;21.25;;;;;;;16.13;100.00;100175.28;10375322;28;20470;-68
2023/06/07 00:39:28;;;;;;;21.08;19.88;;;;;;;16.14;100.00;100171.69;10377646;28;20045;-68
2023/06/07 00:44:30;;;;;;;20.38;19.15;;;;;;;16.06;100.00;100176.53;10375925;28;20100;-68
2023/06/07 00:49:32;;;;;;;21.80;20.52;;;;;;;16.27;100.00;100175.41;10391946;28;20125;-68
2023/06/07 00:54:34;;;;;;;18.63;17.55;;;;;;;16.18;100.00;100180.34;10391409;28;20073;-68
2023/06/07 00:59:37;;;;;;;21.52;20.05;;;;;;;15.96;100.00;100175.31;10376216;28;20480;-68
2023/06/07 01:04:40;;;;;;;22.95;21.45;;;;;;;15.94;100.00;100172.75;10359502;28;20054;-68
2023/06/07 01:09:43;;;;;;;16.20;15.30;;;;;;;15.91;100.00;100169.41;10390537;28;20518;-68
2023/06/07 01:14:47;;;;;;;21.00;19.40;;;;;;;15.87;100.00;100164.25;10375232;28;20042;-68
2023/06/07 01:19:51;;;;;;;20.42;19.27;;;;;;;16.14;100.00;100167.25;10389747;28;20045;-68
2023/06/07 01:24:55;;;;;;;18.15;17.08;;;;;;;15.95;100.00;100168.31;10376213;28;20066;-68
2023/06/07 01:29:59;;;;;;;20.75;19.55;;;;;;;15.94;100.00;100164.81;10380085;28;20069;-68
2023/06/07 01:35:03;;;;;;;16.27;15.35;;;;;;;15.70;100.00;100166.91;10381198;28;20061;-68
2023/06/07 01:40:08;;;;;;;15.20;14.30;;;;;;;15.60;100.00;100155.88;10382913;28;20094;-68
2023/06/07 01:45:11;;;;;;;20.30;19.20;;;;;;;15.76;100.00;100149.81;10399447;28;20133;-70
2023/06/07 01:50:20;;;;;;;19.27;18.17;;;;;;;15.93;100.00;100148.94;10382969;28;20463;-70
2023/06/07 01:55:23;;;;;;;21.60;20.25;;;;;;;15.87;100.00;100139.53;10382556;28;20100;-70
2023/06/07 02:00:56;;;;;;;21.00;19.63;;;;;;;15.71;100.00;100134.16;10382018;28;20476;-70
2023/06/07 02:06:03;;;;;;;17.25;16.25;;;;;;;15.34;100.00;100136.00;10384407;28;20069;-70
2023/06/07 02:11:06;;;;;;;21.30;20.10;;;;;;;15.23;100.00;100126.84;10381726;28;20125;-70
2023/06/07 02:16:08;;;;;;;22.13;20.92;;;;;;;15.21;100.00;100126.09;10381100;28;20093;-70
2023/06/07 02:21:10;;;;;;;23.55;21.98;;;;;;;15.20;100.00;100121.72;10395912;28;20048;-70
2023/06/07 02:26:14;;;;;;;18.50;17.42;;;;;;;15.22;100.00;100123.34;10381940;28;20092;-70
2023/06/07 02:31:17;;;;;;;23.40;21.65;;;;;;;15.39;100.00;100114.56;10382586;28;20569;-70
2023/06/07 02:36:24;;;;;;;21.30;20.05;;;;;;;15.41;100.00;100109.22;10380956;28;20113;-70
2023/06/07 02:41:26;;;;;;;22.48;21.17;;;;;;;15.29;100.00;100111.53;10379734;28;20042;-70
2023/06/07 02:46:29;;;;;;;18.85;17.80;;;;;;;15.28;100.00;100114.25;10379372;28;20049;-70
2023/06/07 02:51:32;;;;;;;24.80;23.40;;;;;;;15.45;100.00;100102.81;10380439;28;20037;-71
2023/06/07 02:56:34;;;;;;;23.30;21.73;;;;;;;15.61;100.00;100101.94;10378888;28;20071;-70
2023/06/07 03:01:37;;;;;;;23.27;21.88;;;;;;;15.69;100.00;100106.88;10378312;28;20049;-70
2023/06/07 03:06:40;;;;;;;22.35;20.90;;;;;;;15.72;100.00;100104.09;10378041;28;20438;-69
2023/06/07 03:11:54;;;;;;;20.70;19.33;;;;;;;15.46;100.00;100110.69;10380545;28;20048;-70
2023/06/07 03:17:02;;;;;;;19.80;18.70;;;;;;;15.34;100.00;100113.94;10394076;28;20046;-70
2023/06/07 03:22:06;;;;;;;22.60;21.23;;;;;;;15.39;100.00;100110.13;10377635;28;20518;-70
2023/06/07 03:27:10;;;;;;;21.80;20.50;;;;;;;15.49;100.00;100112.31;10376919;28;20537;-70
2023/06/07 03:32:14;;;;;;;19.95;18.75;;;;;;;15.44;100.00;100125.78;10377438;28;20065;-70
2023/06/07 03:37:16;;;;;;;19.58;18.40;;;;;;;15.51;100.00;100126.34;10380189;28;20240;-70
2023/06/07 03:42:18;;;;;;;25.23;23.55;;;;;;;15.67;100.00;100126.44;10377474;28;20478;-69
2023/06/07 03:47:21;;;;;;;26.45;24.83;;;;;;;15.59;100.00;100122.38;10376700;28;20453;-71
2023/06/07 03:52:24;;;;;;;26.90;25.05;;;;;;;15.63;100.00;100110.69;10375425;28;20053;-68
2023/06/07 03:57:26;;;;;;;20.83;19.52;;;;;;;15.70;100.00;100118.34;10393904;28;20519;-71
2023/06/07 04:02:29;;;;;;;19.70;18.27;;;;;;;15.79;100.00;100123.16;10377697;28;20399;-69
2023/06/07 04:07:32;;;;;;;21.08;19.73;;;;;;;15.81;100.00;100119.50;10391794;28;20046;-69
2023/06/07 04:12:34;;;;;;;22.52;21.13;;;;;;;15.92;100.00;100126.88;10391839;28;20050;-70
2023/06/07 04:17:36;;;;;;;23.30;21.70;;;;;;;16.04;100.00;100126.25;10376901;28;20456;-70
2023/06/07 04:22:38;;;;;;;26.60;25.00;;;;;;;16.13;100.00;100131.06;10375594;28;20045;-70
2023/06/07 04:27:45;;;;;;;21.88;20.48;;;;;;;16.32;100.00;100132.72;10376307;28;20044;-70
2023/06/07 04:32:47;;;;;;;21.73;20.27;;;;;;;16.39;100.00;100129.69;10445473;22;20076;-70
2023/06/07 04:37:51;;;;;;;20.38;19.13;;;;;;;16.54;100.00;100120.00;10456490;28;20300;-69
2023/06/07 04:43:05;;;;;;;21.63;20.05;;;;;;;16.49;100.00;100121.22;10439539;28;20041;-70
2023/06/07 04:48:11;;;;;;;17.65;16.42;;;;;;;16.65;100.00;100114.97;10439865;28;20114;-70
2023/06/07 04:53:19;;;;;;;12.85;12.00;;;;;;;16.95;100.00;100116.00;10454652;28;20111;-70
2023/06/07 04:58:22;;;;;;;15.45;14.43;;;;;;;17.30;100.00;100117.50;10455074;28;20095;-70
2023/06/07 05:03:25;;;;;;;17.15;16.05;;;;;;;17.10;100.00;100118.66;10455813;28;20107;-70
2023/06/07 05:08:30;;;;;;;16.38;15.25;;;;;;;17.04;100.00;100124.31;10455012;28;20049;-70
2023/06/07 05:13:33;;;;;;;13.98;13.07;;;;;;;17.13;100.00;100117.63;10454577;28;20111;-70
2023/06/07 05:18:36;;;;;;;14.63;13.75;;;;;;;16.95;100.00;100129.28;10455643;28;20132;-70
2023/06/07 05:23:37;;;;;;;12.50;11.60;;;;;;;17.10;100.00;100133.75;10454606;28;20045;-70
2023/06/07 05:28:39;;;;;;;14.63;13.52;;;;;;;17.11;100.00;100131.00;10455609;28;20483;-70
2023/06/07 05:33:41;;;;;;;14.65;13.57;;;;;;;17.21;100.00;100135.78;10454446;28;20135;-70
2023/06/07 05:38:43;;;;;;;15.77;14.77;;;;;;;17.18;100.00;100138.59;10455013;28;20506;-70
2023/06/07 05:43:46;;;;;;;12.13;11.30;;;;;;;17.29;100.00;100133.53;10454744;28;20525;-70
2023/06/07 05:48:47;;;;;;;13.05;12.25;;;;;;;17.62;100.00;100144.84;10455702;28;20112;-70
2023/06/07 05:53:54;;;;;;;15.07;13.85;;;;;;;17.54;100.00;100141.78;10460096;28;20053;-70
2023/06/07 05:58:56;;;;;;;15.48;14.50;;;;;;;17.46;100.00;100146.69;10469672;28;20072;-70
2023/06/07 06:03:58;;;;;;;14.82;13.75;;;;;;;17.46;100.00;100144.03;10469718;28;20087;-70
2023/06/07 06:09:00;;;;;;;15.30;14.32;;;;;;;17.76;100.00;100140.56;10464750;28;20087;-70
2023/06/07 06:14:02;;;;;;;12.45;11.63;;;;;;;18.27;99.75;100140.97;10461006;28;20048;-70
2023/06/07 06:19:03;;;;;;;11.43;10.73;;;;;;;18.64;94.47;100142.22;10462156;28;20120;-70
2023/06/07 06:24:06;;;;;;;12.63;11.75;;;;;;;18.74;93.31;100147.84;10460636;28;20084;-70
2023/06/07 06:29:08;;;;;;;12.05;11.35;;;;;;;18.79;96.12;100145.72;10462016;28;20113;-70
2023/06/07 06:34:10;;;;;;;11.65;10.73;;;;;;;19.31;89.10;100150.34;10460744;28;20443;-70
2023/06/07 06:39:12;;;;;;;10.73;10.02;;;;;;;19.71;82.84;100148.56;10462160;28;20402;-70
2023/06/07 06:44:14;;;;;;;11.93;11.23;;;;;;;19.57;85.59;100138.78;10462058;28;20512;-70
2023/06/07 06:49:16;;;;;;;11.15;10.35;;;;;;;20.12;77.23;100135.00;10462007;28;20196;-71
2023/06/07 06:54:18;;;;;;;10.63;9.55;;;;;;;20.05;80.54;100144.41;10462090;28;20073;-70
2023/06/07 06:59:20;;;;;;;11.13;10.32;;;;;;;20.20;79.63;100145.16;10461542;28;20072;-70
2023/06/07 07:04:21;;;;;;;10.88;9.80;;;;;;;20.04;82.71;100145.38;10461507;28;20041;-70
2023/06/07 07:09:23;;;;;;;9.65;9.00;;;;;;;20.12;78.96;100150.19;10462473;28;20072;-70
2023/06/07 07:14:25;;;;;;;13.25;12.15;;;;;;;20.52;80.12;100150.06;10461441;28;20051;-70
2023/06/07 07:19:27;;;;;;;16.60;10.98;;;;;;;20.36;82.32;100152.94;10461020;28;20402;-70
2023/06/07 07:24:28;;;;;;;11.25;10.32;;;;;;;20.62;79.27;100153.78;10480685;28;20447;-70
2023/06/07 07:29:30;;;;;;;11.68;10.77;;;;;;;20.57;80.47;100153.25;10501819;28;20040;-70
2023/06/07 07:34:32;;;;;;;11.40;10.55;;;;;;;20.42;81.91;100153.38;10501892;28;20052;-70
2023/06/07 07:39:36;;;;;;;11.85;11.05;;;;;;;20.15;82.57;100160.66;10502553;28;20047;-70
2023/06/07 07:44:38;;;;;;;10.73;9.90;;;;;;;20.47;82.38;100161.06;10503572;28;20044;-70
2023/06/07 07:49:40;;;;;;;12.57;11.45;;;;;;;20.79;78.33;100156.09;10502342;28;20116;-70
2023/06/07 07:54:42;;;;;;;12.70;11.60;;;;;;;20.83;80.23;100154.91;10501735;28;20482;-70
2023/06/07 07:59:43;;;;;;;12.18;11.30;;;;;;;20.64;79.56;100158.06;10501120;28;20123;-70
2023/06/07 08:04:45;;;;;;;17.65;12.90;;;;;;;20.49;80.21;100153.81;10501567;28;20351;-70
2023/06/07 08:09:47;;;;;;;13.80;12.88;;;;;;;20.66;81.81;100156.13;10501108;28;20071;-70
2023/06/07 08:14:49;;;;;;;14.27;13.18;;;;;;;20.80;79.55;100160.47;10489668;28;20037;-69
2023/06/07 08:19:51;;;;;;;13.70;12.80;;;;;;;20.88;78.90;100166.13;10475842;28;20067;-70
2023/06/07 08:24:53;;;;;;;12.50;11.60;;;;;;;20.57;78.93;100161.28;10485811;28;20454;-70
2023/06/07 08:29:54;;;;;;;11.45;10.63;;;;;;;20.55;74.89;100164.06;10500939;28;20033;-70
2023/06/07 08:34:56;;;;;;;11.40;10.45;;;;;;;20.59;76.35;100154.03;10458569;28;20053;-70
2023/06/07 08:39:58;;;;;;;12.27;11.15;;;;;;;20.99;76.05;100159.16;10465705;28;20071;-70
2023/06/07 08:45:00;;;;;;;13.23;12.00;;;;;;;21.54;73.58;100163.97;10482939;28;20068;-70
2023/06/07 08:50:03;;;;;;;12.98;10.63;;;;;;;21.75;71.02;100163.31;10471299;28;20036;-70
2023/06/07 08:55:11;;;;;;;10.27;9.57;;;;;;;22.32;68.33;100167.84;10460497;28;20132;-70
2023/06/07 09:00:14;;;;;;;10.75;10.05;;;;;;;22.37;63.82;100169.19;10418111;28;20051;-70
2023/06/07 09:05:16;;;;;;;11.45;10.65;;;;;;;23.01;66.37;100173.91;10416990;28;20497;-71
2023/06/07 09:10:17;;;;;;;11.93;11.13;;;;;;;23.47;62.52;100172.81;10416436;28;20065;-69
2023/06/07 09:15:21;;;;;;;11.23;10.40;;;;;;;23.26;64.67;100172.75;10466277;28;20082;-71
2023/06/07 09:20:28;;;;;;;13.40;12.20;;;;;;;22.41;67.55;100169.78;10498675;28;20047;-70
2023/06/07 09:25:30;;;;;;;13.70;12.60;;;;;;;22.15;66.49;100170.00;10499749;28;20119;-71
2023/06/07 09:30:32;;;;;;;10.95;10.15;;;;;;;22.53;67.51;100174.16;10499060;28;20475;-71
2023/06/07 09:35:33;;;;;;;13.60;12.70;;;;;;;22.54;67.51;100170.53;10500642;28;20052;-71
2023/06/07 09:40:36;;;;;;;12.98;11.93;;;;;;;22.37;67.40;100161.13;10499701;28;20051;-71
2023/06/07 09:45:37;;;;;;;12.63;11.75;;;;;;;23.56;63.73;100165.81;10499351;28;20041;-71
2023/06/07 09:50:54;;;;;;;11.93;11.23;;;;;;;24.46;58.83;100162.66;10504650;28;20067;-71
2023/06/07 09:55:56;;;;;;;12.48;11.68;;;;;;;24.46;61.93;100166.19;10507307;28;20045;-71
2023/06/07 10:00:58;;;;;;;12.95;12.02;;;;;;;24.98;61.27;100166.94;10507459;28;20037;-71
2023/06/07 10:06:00;;;;;;;11.75;10.77;;;;;;;25.92;56.51;100162.78;10497508;28;20051;-71
2023/06/07 10:11:02;;;;;;;11.50;10.25;;;;;;;25.95;54.77;100152.72;10466236;28;20045;-72
2023/06/07 10:16:09;;;;;;;12.52;11.27;;;;;;;25.72;54.62;100153.00;10464490;28;20119;-72
2023/06/07 10:21:18;;;;;;;11.63;10.68;;;;;;;26.23;55.49;100143.69;10463766;28;20505;-71
2023/06/07 10:26:22;;;;;;;11.68;10.65;;;;;;;26.32;53.42;100142.81;10464470;28;20121;-71
2023/06/07 10:31:29;;;;;;;10.80;10.05;;;;;;;26.26;51.02;100145.28;10480716;28;20424;-76
2023/06/07 10:36:31;;;;;;;9.50;8.25;;;;;;;26.25;51.76;100143.53;10464577;28;20526;-77
2023/06/07 10:41:35;;;;;;;10.15;9.20;;;;;;;25.50;52.71;100138.00;10465482;28;20422;-77
2023/06/07 10:46:36;;;;;;;8.30;7.70;;;;;;;26.35;53.37;100139.84;10465827;28;20098;-76
2023/06/07 10:51:43;;;;;;;7.93;7.32;;;;;;;27.14;48.06;100144.75;10464669;28;20115;-76
2023/06/07 10:56:51;;;;;;;8.13;7.63;;;;;;;25.88;51.77;100139.81;10463244;28;20041;-76
2023/06/07 11:01:54;;;;;;;6.82;6.30;;;;;;;26.23;50.61;100134.78;10464679;28;20037;-77
2023/06/07 11:07:27;;;;;;;7.03;5.70;;;;;;;25.80;49.96;100138.84;10465330;28;20048;-77
2023/06/07 11:12:35;;;;;;;7.68;6.90;;;;;;;25.52;53.05;100144.06;10465430;28;20041;-77
2023/06/07 11:17:57;;;;;;;6.82;6.22;;;;;;;25.43;53.15;100139.53;10465241;28;20045;-77
2023/06/07 11:23:30;;;;;;;7.70;7.00;;;;;;;24.69;55.96;100141.78;10464584;28;20029;-76
2023/06/07 11:28:34;;;;;;;8.65;8.00;;;;;;;24.10;61.85;100146.03;10464639;28;20094;-75
2023/06/07 11:33:36;;;;;;;8.82;8.02;;;;;;;23.60;63.46;100149.34;10463804;28;20040;-75
2023/06/07 11:38:38;;;;;;;7.57;6.78;;;;;;;23.39;63.63;100151.97;10463864;28;20041;-75
2023/06/07 11:43:40;;;;;;;7.53;6.93;;;;;;;23.28;66.22;100149.31;10463108;28;20044;-75
2023/06/07 11:48:43;;;;;;;5.68;5.18;;;;;;;23.23;60.80;100148.00;10461839;28;20094;-75
2023/06/07 11:53:47;;;;;;;6.32;5.82;;;;;;;23.26;60.40;100150.44;10460543;28;20140;-75
2023/06/07 11:58:49;;;;;;;6.05;5.45;;;;;;;23.31;61.39;100151.75;10459333;28;20083;-76
2023/06/07 12:03:51;;;;;;;5.65;5.25;;;;;;;23.45;62.70;100145.25;10460525;28;20041;-76
2023/06/07 12:08:54;;;;;;;5.65;5.18;;;;;;;23.71;58.21;100145.78;10460731;28;20115;-75
2023/06/07 12:14:00;;;;;;;5.63;5.13;;;;;;;23.78;59.73;100140.75;10459848;28;20083;-76
2023/06/07 12:19:04;;;;;;;5.35;4.88;;;;;;;23.92;57.27;100143.09;10459962;28;20072;-76
2023/06/07 12:24:06;;;;;;;4.60;4.28;;;;;;;24.20;54.72;100129.97;10459213;28;20049;-76
2023/06/07 12:29:08;;;;;;;5.00;4.57;;;;;;;24.20;57.23;100138.88;10458142;28;20049;-77
2023/06/07 12:34:10;;;;;;;5.20;4.72;;;;;;;24.37;53.55;100135.59;10459613;28;20068;-76
2023/06/07 12:39:13;;;;;;;4.30;3.90;;;;;;;24.31;53.17;100137.94;10456936;28;20142;-76
2023/06/07 12:44:15;;;;;;;4.70;4.00;;;;;;;24.60;55.70;100136.25;10456695;28;20043;-75
2023/06/07 12:49:17;;;;;;;4.38;4.05;;;;;;;24.85;49.92;100134.06;10456754;28;20045;-76
2023/06/07 12:54:19;;;;;;;4.20;3.90;;;;;;;24.79;51.81;100126.53;10456818;28;20079;-76
2023/06/07 12:59:21;;;;;;;4.13;3.83;;;;;;;24.57;54.70;100117.72;10455123;28;20036;-76
2023/06/07 13:04:23;;;;;;;6.32;4.22;;;;;;;25.09;51.22;100122.94;10456156;28;20037;-76
2023/06/07 13:09:25;;;;;;;4.55;4.15;;;;;;;25.34;49.63;100125.09;10455841;28;20052;-77
2023/06/07 13:14:27;;;;;;;4.68;4.28;;;;;;;25.27;49.18;100128.47;10454693;28;20137;-76
2023/06/07 13:19:28;;;;;;;4.65;4.25;;;;;;;25.05;51.14;100116.97;10456531;28;20120;-76
2023/06/07 13:24:32;;;;;;;5.28;4.57;;;;;;;25.21;51.44;100116.44;10459828;28;20068;-76
2023/06/07 13:29:34;;;;;;;4.85;4.45;;;;;;;25.28;49.97;100114.03;10464403;28;20479;-76
2023/06/07 13:34:35;;;;;;;5.15;4.75;;;;;;;25.37;50.32;100116.75;10464411;28;20407;-75
2023/06/07 13:39:37;;;;;;;6.25;5.65;;;;;;;25.03;51.34;100113.56;10463994;28;20040;-76
2023/06/07 13:44:39;;;;;;;5.43;5.03;;;;;;;24.73;52.88;100116.34;10463636;28;20060;-76
2023/06/07 13:49:41;;;;;;;5.10;4.70;;;;;;;24.94;51.20;100116.25;10463794;28;20045;-76
2023/06/07 13:54:43;;;;;;;5.30;4.93;;;;;;;24.72;51.33;100109.28;10463478;28;20049;-76
2023/06/07 13:59:45;;;;;;;5.45;4.93;;;;;;;24.60;52.41;100108.53;10464183;28;20372;-76
2023/06/07 14:04:48;;;;;;;6.18;5.40;;;;;;;24.65;52.57;100106.25;10463019;28;20052;-75
2023/06/07 14:09:50;;;;;;;5.72;5.32;;;;;;;24.46;53.00;100107.06;10463000;28;20098;-75
2023/06/07 14:14:52;;;;;;;5.90;5.30;;;;;;;24.03;55.46;100101.88;10462680;28;20083;-75
2023/06/07 14:19:53;;;;;;;5.88;5.38;;;;;;;23.97;55.95;100114.00;10462390;28;20067;-75
2023/06/07 14:24:55;;;;;;;6.38;5.43;;;;;;;23.59;57.67;100110.03;10462616;28;20051;-75
2023/06/07 14:29:57;;;;;;;5.75;5.25;;;;;;;23.20;60.63;100103.56;10462086;28;20067;-76
2023/06/07 14:34:58;;;;;;;6.07;4.82;;;;;;;23.14;62.23;100099.53;10461831;28;20045;-75
2023/06/07 14:40:00;;;;;;;5.57;5.18;;;;;;;23.24;59.55;100104.13;10461829;28;20068;-76
2023/06/07 14:45:04;;;;;;;5.95;4.43;;;;;;;23.19;61.24;100100.97;10461378;28;20037;-76
2023/06/07 14:50:06;;;;;;;4.18;3.78;;;;;;;22.99;58.50;100105.31;10460955;28;20037;-75
2023/06/07 14:55:08;;;;;;;7.13;4.28;;;;;;;22.92;57.86;100097.78;10460776;28;20383;-75
2023/06/07 15:00:11;;;;;;;5.50;3.78;;;;;;;22.90;58.30;100101.56;10460715;28;20087;-76
2023/06/07 15:05:13;;;;;;;4.22;3.92;;;;;;;22.98;57.57;100099.13;10459391;28;20068;-75
2023/06/07 15:10:15;;;;;;;3.78;3.38;;;;;;;22.93;56.97;100101.28;10459994;28;20503;-74
2023/06/07 15:15:17;;;;;;;3.22;3.03;;;;;;;22.82;58.19;100098.63;10458945;28;20051;-74
2023/06/07 15:20:19;;;;;;;4.38;3.92;;;;;;;22.86;58.18;100100.09;10459703;28;20072;-74
2023/06/07 15:25:21;;;;;;;3.75;3.22;;;;;;;22.65;59.85;100087.44;10459389;28;20045;-74
2023/06/07 15:30:23;;;;;;;3.10;2.83;;;;;;;22.73;58.09;100089.50;10459852;28;20036;-74
2023/06/07 15:35:25;;;;;;;4.22;2.58;;;;;;;22.67;57.42;100084.66;10459481;28;20439;-74
2023/06/07 15:40:26;;;;;;;3.60;3.30;;;;;;;22.64;60.79;100083.06;10460165;28;20055;-74
2023/06/07 15:45:29;;;;;;;140.73;35.60;;;;;;;22.67;55.73;100084.66;10458744;28;20060;-74
2023/06/07 15:50:31;;;;;;;5.85;3.70;;;;;;;22.63;55.20;100086.72;10459230;28;20411;-74
2023/06/07 15:55:33;;;;;;;5.00;2.80;;;;;;;22.63;57.66;100076.03;10458488;28;20068;-74
2023/06/07 16:00:34;;;;;;;3.38;2.50;;;;;;;22.66;57.58;100077.56;10458013;28;20048;-74
2023/06/07 16:05:40;;;;;;;3.10;2.60;;;;;;;22.81;55.79;100081.69;10458487;28;20136;-74
2023/06/07 16:10:42;;;;;;;5.47;2.60;;;;;;;22.62;56.08;100079.69;10458926;28;20048;-74
2023/06/07 16:15:44;;;;;;;3.10;2.80;;;;;;;22.44;55.96;100075.78;10458253;28;20041;-73
2023/06/07 16:20:46;;;;;;;2.63;2.42;;;;;;;22.28;56.67;100075.34;10457499;28;20598;-74
2023/06/07 16:25:49;;;;;;;3.55;2.67;;;;;;;22.24;57.55;100074.72;10457319;28;20531;-73
2023/06/07 16:30:51;;;;;;;2.85;2.65;;;;;;;22.19;59.36;100068.03;10457258;28;20073;-71
2023/06/07 16:35:53;;;;;;;8.63;2.80;;;;;;;22.08;61.12;100063.47;10457083;28;20490;-71
2023/06/07 16:40:54;;;;;;;3.10;2.33;;;;;;;22.07;60.27;100064.47;10457706;28;20067;-71
2023/06/07 16:45:56;;;;;;;2.88;2.17;;;;;;;21.92;61.61;100053.16;10456037;28;20498;-71
2023/06/07 16:50:58;;;;;;;3.30;2.65;;;;;;;22.17;58.28;100052.91;10458462;28;20078;-71
2023/06/07 16:56:00;;;;;;;2.85;2.65;;;;;;;22.03;59.20;100053.13;10456529;28;20052;-71
2023/06/07 17:01:02;;;;;;;3.22;2.25;;;;;;;21.89;60.57;100045.34;10456673;28;20033;-72
2023/06/07 17:06:05;;;;;;;2.88;2.28;;;;;;;22.05;58.24;100045.00;10456905;28;20090;-71
2023/06/07 17:11:07;;;;;;;3.33;2.42;;;;;;;21.97;59.10;100050.97;10456351;28;20037;-72
2023/06/07 17:16:11;;;;;;;3.33;2.63;;;;;;;21.67;62.22;100056.88;10456014;28;20095;-72
2023/06/07 17:21:13;;;;;;;2.80;2.60;;;;;;;21.36;65.79;100061.06;10456997;28;20403;-72
2023/06/07 17:26:14;;;;;;;2.40;2.20;;;;;;;21.54;64.92;100056.97;10456769;28;20061;-72
2023/06/07 17:31:16;;;;;;;3.78;2.88;;;;;;;21.43;65.36;100059.63;10455816;28;20491;-72
2023/06/07 17:36:18;;;;;;;3.08;2.88;;;;;;;21.10;66.47;100063.84;10455811;28;20498;-72
2023/06/07 17:41:20;;;;;;;3.67;3.38;;;;;;;21.07;66.59;100064.09;10455428;28;20401;-73
2023/06/07 17:46:22;;;;;;;2.70;2.28;;;;;;;21.09;66.78;100062.16;10455530;28;20127;-73
2023/06/07 17:51:23;;;;;;;4.72;2.72;;;;;;;21.46;64.03;100059.38;10456584;28;20041;-72
2023/06/07 17:56:25;;;;;;;2.42;2.22;;;;;;;21.32;65.75;100067.59;10455260;28;20041;-72
2023/06/07 18:01:28;;;;;;;2.95;2.75;;;;;;;21.26;65.47;100071.56;10454138;28;20519;-72
2023/06/07 18:06:30;;;;;;;2.95;2.58;;;;;;;20.95;67.78;100070.34;10453824;28;20052;-72
2023/06/07 18:11:31;;;;;;;3.22;2.90;;;;;;;20.68;69.01;100067.91;10458603;28;20416;-72
2023/06/07 18:16:33;;;;;;;3.63;3.33;;;;;;;20.77;68.20;100071.72;10463091;28;20455;-72
2023/06/07 18:21:36;;;;;;;5.55;3.63;;;;;;;20.71;69.01;100074.81;10462082;28;20041;-72
2023/06/07 18:26:38;;;;;;;4.15;3.75;;;;;;;20.40;70.89;100071.66;10462427;28;20080;-72
2023/06/07 18:31:40;;;;;;;3.95;3.65;;;;;;;20.23;73.14;100070.22;10461855;28;20498;-72
2023/06/07 18:36:42;;;;;;;3.88;3.47;;;;;;;20.19;74.53;100068.75;10462118;28;20044;-72
2023/06/07 18:41:46;;;;;;;4.07;3.70;;;;;;;20.17;74.98;100070.66;10462004;28;20079;-72
2023/06/07 18:46:48;;;;;;;4.15;3.75;;;;;;;19.92;76.47;100066.16;10462680;28;20049;-72
2023/06/07 18:51:49;;;;;;;5.45;4.25;;;;;;;19.94;78.22;100069.59;10461652;28;20049;-72
2023/06/07 18:56:51;;;;;;;4.07;3.78;;;;;;;19.93;78.67;100065.22;10461769;28;20045;-72
2023/06/07 19:01:55;;;;;;;4.18;3.78;;;;;;;19.97;80.22;100064.06;10461224;28;20041;-72
2023/06/07 19:06:56;;;;;;;3.83;3.50;;;;;;;19.72;81.56;100061.38;10461250;28;20041;-71
2023/06/07 19:11:59;;;;;;;4.47;4.18;;;;;;;19.60;82.80;100066.59;10460520;28;20168;-72
2023/06/07 19:17:00;;;;;;;5.20;3.88;;;;;;;19.38;83.71;100072.50;10461148;28;20461;-72
2023/06/07 19:22:03;;;;;;;4.40;4.10;;;;;;;19.31;84.92;100078.38;10460230;28;20398;-72
2023/06/07 19:27:06;;;;;;;5.00;4.60;;;;;;;19.30;86.62;100088.19;10460392;28;20048;-72
2023/06/07 19:32:08;;;;;;;5.03;4.63;;;;;;;19.21;87.81;100090.59;10460788;28;20102;-72
2023/06/07 19:37:11;;;;;;;4.75;4.35;;;;;;;18.98;87.33;100092.97;10459607;28;20116;-72
2023/06/07 19:42:17;;;;;;;5.20;4.60;;;;;;;18.75;89.90;100107.78;10459667;28;20037;-72
2023/06/07 19:47:19;;;;;;;5.13;4.63;;;;;;;18.79;88.73;100100.44;10459091;28;20041;-72
2023/06/07 19:52:22;;;;;;;5.35;4.35;;;;;;;18.90;88.96;100096.16;10458832;28;20501;-72
2023/06/07 19:57:27;;;;;;;5.60;5.20;;;;;;;19.12;88.38;100089.38;10458829;28;20071;-72
2023/06/07 20:02:29;;;;;;;5.35;4.95;;;;;;;18.98;89.66;100100.09;10459609;28;20116;-72
2023/06/07 20:07:31;;;;;;;5.97;5.40;;;;;;;18.85;94.24;100094.72;10458336;28;20095;-72
2023/06/07 20:12:36;;;;;;;5.75;5.25;;;;;;;18.59;96.14;100089.25;10458960;28;20033;-71
2023/06/07 20:17:38;;;;;;;5.00;4.60;;;;;;;18.73;92.16;100099.06;10458056;28;20088;-71
2023/06/07 20:22:40;;;;;;;5.93;5.35;;;;;;;18.75;92.13;100094.47;10458087;28;20486;-72
2023/06/07 20:27:42;;;;;;;5.07;4.78;;;;;;;18.59;94.62;100089.25;10457571;28;20052;-72
2023/06/07 20:32:46;;;;;;;5.20;4.53;;;;;;;18.51;96.05;100088.88;10457023;28;20453;-71
2023/06/07 20:37:48;;;;;;;5.55;5.07;;;;;;;18.60;95.11;100087.44;10457467;28;20053;-71
2023/06/07 20:42:51;;;;;;;6.40;5.78;;;;;;;19.08;91.68;100088.75;10458086;28;20064;-72
2023/06/07 20:47:53;;;;;;;6.35;5.85;;;;;;;18.98;92.26;100084.13;10456394;28;20403;-71
2023/06/07 20:52:55;;;;;;;6.35;5.85;;;;;;;18.87;91.91;100082.16;10457497;28;20051;-71
2023/06/07 20:57:57;;;;;;;5.55;5.13;;;;;;;18.55;97.55;100079.75;10458164;28;20513;-71
2023/06/07 21:02:59;;;;;;;7.32;6.93;;;;;;;18.44;98.62;100070.75;10457076;28;20396;-71
2023/06/07 21:08:00;;;;;;;8.80;7.35;;;;;;;18.69;97.22;100078.00;10457016;28;20052;-70
2023/06/07 21:13:02;;;;;;;7.80;7.30;;;;;;;18.95;95.14;100081.66;10458267;28;20041;-70
2023/06/07 21:18:05;;;;;;;8.10;7.40;;;;;;;18.86;94.86;100083.97;10457466;28;20092;-70
2023/06/07 21:23:07;;;;;;;7.20;6.70;;;;;;;18.56;96.59;100075.28;10457993;28;20124;-71
2023/06/07 21:28:11;;;;;;;7.90;7.35;;;;;;;18.56;95.88;100072.63;10457867;28;20087;-71
2023/06/07 21:33:13;;;;;;;8.13;7.35;;;;;;;18.65;93.43;100070.22;10457968;28;20128;-71
2023/06/07 21:38:15;;;;;;;7.15;6.57;;;;;;;18.71;92.51;100078.78;10457951;28;20495;-71
2023/06/07 21:43:16;;;;;;;6.60;6.03;;;;;;;18.48;95.16;100072.25;10457390;28;20072;-71
2023/06/07 21:48:18;;;;;;;7.63;7.05;;;;;;;18.24;98.75;100080.84;10465057;28;20067;-71
2023/06/07 21:53:20;;;;;;;6.88;6.28;;;;;;;18.20;100.00;100079.31;10465580;28;20045;-71
2023/06/07 21:58:21;;;;;;;7.32;6.82;;;;;;;18.22;100.00;100087.19;10465248;28;20522;-71
2023/06/07 22:03:23;;;;;;;7.82;7.32;;;;;;;18.23;100.00;100095.06;10465433;28;20454;-71
2023/06/07 22:08:25;;;;;;;7.97;7.35;;;;;;;18.55;99.37;100097.50;10464441;28;20047;-70
2023/06/07 22:13:27;;;;;;;6.43;5.93;;;;;;;18.35;99.81;100099.63;10464721;28;20044;-71
2023/06/07 22:18:35;;;;;;;7.35;6.75;;;;;;;18.44;98.64;100103.53;10464157;28;20040;-71
2023/06/07 22:23:37;;;;;;;8.20;7.50;;;;;;;18.47;97.87;100110.47;10464646;28;20037;-71
2023/06/07 22:28:40;;;;;;;7.75;7.15;;;;;;;18.22;100.00;100113.81;10464335;28;20052;-70
2023/06/07 22:33:41;;;;;;;8.80;8.00;;;;;;;18.02;100.00;100113.25;10463958;28;20045;-70
2023/06/07 22:38:43;;;;;;;7.03;6.57;;;;;;;18.01;100.00;100106.19;10463515;28;20075;-70
2023/06/07 22:43:45;;;;;;;7.60;7.10;;;;;;;18.36;100.00;100119.13;10463617;28;20051;-70
2023/06/07 22:48:46;;;;;;;8.88;8.18;;;;;;;18.32;100.00;100126.44;10463285;28;20447;-71
2023/06/07 22:53:49;;;;;;;8.40;7.72;;;;;;;18.20;100.00;100137.84;10463079;28;20538;-70